Flight Track Log - Related Links

Times and Time Zones

All times are in EDT time to prevent confusion due to time zone crossing. See the N1944E flight status page for this flight to view local times or setup timezone preferences in your user account.

Time Position Orientation Groundspeed Altitude Reporting Facility
EDT Latitude Longitude Course Direction KTS MPH feet Rate Location/Type
Fri 05:49:07 PM 45.7697 -111.1433 138° Southeast 123 142 4,800  Level Salt Lake Center
Fri 05:49:50 PM 45.7539 -111.1228 138° Southeast 117 135 5,500 928 Climbing Salt Lake Center
Fri 05:50:44 PM 45.7286 -111.0817 131° Southeast 140 161 6,300 889 Climbing Salt Lake Center
Fri 05:51:11 PM 45.7186 -111.0656 132° Southeast 136 157 6,700 873 Climbing Salt Lake Center
Fri 05:51:39 PM 45.7053 -111.0489 139° Southeast 147 169 7,100 968 Climbing Salt Lake Center
Fri 05:52:13 PM 45.6878 -111.0211 132° Southeast 140 161 7,700 1,111 Climbing Salt Lake Center
Fri 05:52:33 PM 45.6781 -111.0089 139° Southeast 144 166 8,100 968 Climbing Salt Lake Center
Fri 05:53:15 PM 45.6614 -110.9750 125° Southeast 148 170 8,700 764 Climbing Salt Lake Center
Fri 05:53:28 PM 45.6581 -110.9622 110° East 159 183 8,800 986 Climbing Salt Lake Center
Fri 05:54:28 PM 45.6531 -110.9050 97° East 158 182 9,900 1,027 Climbing Salt Lake Center
Fri 05:55:19 PM 45.6497 -110.8494 95° East 156 180 10,700 850 Climbing Salt Lake Center
Fri 05:56:21 PM 45.6344 -110.7889 110° East 163 188 11,500 912 Climbing Salt Lake Center
Fri 05:57:24 PM 45.5958 -110.7428 140° Southeast 167 192 12,600 960 Climbing Salt Lake Center
Fri 05:58:26 PM 45.5539 -110.7106 152° Southeast 167 192 13,500 919 Climbing Salt Lake Center
Fri 05:59:28 PM 45.5133 -110.6778 150° Southeast 167 192 14,500 726 Climbing Salt Lake Center
Fri 06:00:30 PM 45.4742 -110.6422 148° Southeast 166 191 15,000 242 Climbing Salt Lake Center
Fri 06:01:32 PM 45.4264 -110.5953 145° Southeast 202 232 15,000 339 Level Salt Lake Center
Fri 06:02:34 PM 45.3778 -110.5553 150° Southeast 204 235 15,700 484 Climbing Salt Lake Center
Fri 06:03:36 PM 45.3347 -110.5108 144° Southeast 198 228 16,000 145 Climbing Salt Lake Center
Fri 06:04:38 PM 45.2803 -110.4597 147° Southeast 206 237 16,000  Level Salt Lake Center
Fri 06:05:40 PM 45.2436 -110.4106 137° Southeast 207 238 16,000  Level Salt Lake Center
Fri 06:06:42 PM 45.2072 -110.3222 120° Southeast 215 247 16,000  Level Salt Lake Center
Fri 06:07:44 PM 45.1781 -110.2472 119° Southeast 217 250 16,000 -48 Level Salt Lake Center
Fri 06:08:46 PM 45.1464 -110.1761 122° Southeast 217 250 15,900 -48 Descending Salt Lake Center
Fri 06:09:48 PM 45.1181 -110.1031 119° Southeast 216 249 15,900 48 Level Salt Lake Center
Fri 06:10:50 PM 45.0861 -110.0303 122° Southeast 216 249 16,000 48 Climbing Salt Lake Center
Fri 06:11:52 PM 45.0550 -109.9567 121° Southeast 216 249 16,000  Level Salt Lake Center
Fri 06:12:54 PM 45.0183 -109.8722 122° Southeast 216 249 16,000  Level Salt Lake Center
Fri 06:13:56 PM 44.9881 -109.8022 121° Southeast 215 247 16,000  Level Salt Lake Center
Fri 06:14:58 PM 44.9578 -109.7333 122° Southeast 212 244 16,000  Level Salt Lake Center
Fri 06:16:00 PM 44.9283 -109.6664 122° Southeast 209 241 16,000  Level Salt Lake Center
Fri 06:17:02 PM 44.8989 -109.5964 121° Southeast 208 239 16,000  Level Salt Lake Center
Fri 06:18:04 PM 44.8672 -109.5283 123° Southeast 207 238 16,000  Level Salt Lake Center
Fri 06:19:05 PM 44.8319 -109.4444 121° Southeast 207 238 16,000 -293 Level Salt Lake Center
Fri 06:20:07 PM 44.8014 -109.3733 121° Southeast 208 239 15,400 -435 Descending Salt Lake Center
Fri 06:21:09 PM 44.7678 -109.3017 123° Southeast 212 244 15,100 -435 Descending Salt Lake Center
Fri 06:22:11 PM 44.7353 -109.2247 121° Southeast 220 253 14,500 -774 Descending Salt Lake Center
Fri 06:23:13 PM 44.7011 -109.1486 122° Southeast 224 258 13,500 -919 Descending Salt Lake Center
Fri 06:24:15 PM 44.6667 -109.0722 122° Southeast 228 262 12,600 -726 Descending Salt Lake Center
Fri 06:25:17 PM 44.6872 -108.9856 72° East 225 259 12,000 -290 Descending Salt Lake Center
Fri 06:26:19 PM 44.7339 -108.9536 26° Northeast 203 234 12,000 -97 Level Salt Lake Center
Fri 06:27:21 PM 44.7611 -108.9050 52° Northeast 191 220 11,800 -581 Descending Salt Lake Center
Fri 06:28:23 PM 44.7256 -108.8442 129° Southeast 199 229 10,800 -1,258 Descending Salt Lake Center
Fri 06:29:25 PM 44.6881 -108.7836 131° Southeast 201 231 9,200 -1,548 Descending Salt Lake Center
Fri 06:30:27 PM 44.6408 -108.8158 206° Southwest 210 242 7,600 -1,548 Descending Salt Lake Center

Login

Don't have an account? Register now (free) for customized features, flight alerts, and more!